createdAt,value
2019-02-21T00:02:23.849Z,36.83
2019-02-21T00:04:49.714Z,32.00
2019-02-21T00:07:15.641Z,32.17
2019-02-21T00:09:41.485Z,36.73
2019-02-21T00:12:07.303Z,34.33
2019-02-21T00:14:33.160Z,35.40
2019-02-21T00:16:59.100Z,32.23
2019-02-21T00:19:24.945Z,35.07
2019-02-21T00:21:50.793Z,32.67
2019-02-21T00:24:16.651Z,29.60
2019-02-21T00:26:44.254Z,30.20
2019-02-21T00:29:10.405Z,32.37
2019-02-21T00:31:36.254Z,30.93
2019-02-21T00:34:02.064Z,29.53
2019-02-21T00:36:28.015Z,31.83
2019-02-21T00:38:53.864Z,31.37
2019-02-21T00:41:19.706Z,33.33
2019-02-21T00:43:45.528Z,29.30
2019-02-21T00:46:11.933Z,30.70
2019-02-21T00:48:37.773Z,37.00
2019-02-21T00:51:03.614Z,32.20
2019-02-21T00:53:29.440Z,35.67
2019-02-21T00:55:55.512Z,28.73
2019-02-21T00:58:21.434Z,32.37
2019-02-21T01:00:47.389Z,31.77
2019-02-21T01:03:13.214Z,31.17
2019-02-21T01:05:39.269Z,32.03
2019-02-21T01:08:05.941Z,32.83
2019-02-21T01:10:31.820Z,30.23
2019-02-21T01:12:58.707Z,32.03
2019-02-21T01:15:24.603Z,32.47
2019-02-21T01:17:50.443Z,29.10
2019-02-21T01:20:16.392Z,35.90
2019-02-21T01:22:42.358Z,34.30
2019-02-21T01:25:08.192Z,36.17
2019-02-21T01:27:34.045Z,31.73
2019-02-21T01:29:59.877Z,37.50
2019-02-21T01:32:25.826Z,33.27
2019-02-21T01:34:51.641Z,36.57
2019-02-21T01:37:17.581Z,32.57
2019-02-21T01:39:43.404Z,32.47
2019-02-21T01:42:09.268Z,32.80
2019-02-21T01:44:35.124Z,31.17
2019-02-21T01:47:00.969Z,38.27
2019-02-21T01:49:26.789Z,34.93
2019-02-21T01:51:52.649Z,33.70
2019-02-21T01:54:18.506Z,33.97
2019-02-21T01:56:44.327Z,34.37
2019-02-21T01:59:10.165Z,36.00
2019-02-21T02:01:35.995Z,35.20
2019-02-21T02:04:01.856Z,37.67
2019-02-21T02:06:27.782Z,35.83
2019-02-21T02:08:53.780Z,34.90
2019-02-21T02:11:19.736Z,37.53
2019-02-21T02:13:45.584Z,34.60
2019-02-21T02:16:11.424Z,31.43
2019-02-21T02:18:37.280Z,31.97
2019-02-21T02:21:04.136Z,37.10
2019-02-21T02:23:29.976Z,38.10
2019-02-21T02:25:55.826Z,35.67
2019-02-21T02:28:21.675Z,37.77
2019-02-21T02:30:47.499Z,34.37
2019-02-21T02:33:13.319Z,34.00
2019-02-21T02:35:39.176Z,32.57
2019-02-21T02:38:04.973Z,30.53
2019-02-21T02:40:30.829Z,31.63
2019-02-21T02:42:56.647Z,30.30
2019-02-21T02:45:22.492Z,30.60
2019-02-21T02:47:48.330Z,35.80
2019-02-21T02:50:14.219Z,34.00
2019-02-21T02:52:40.074Z,32.23
2019-02-21T02:55:06.031Z,31.20
2019-02-21T02:57:31.869Z,31.90
2019-02-21T02:59:57.724Z,34.23
2019-02-21T03:02:24.126Z,33.20
2019-02-21T03:04:50.043Z,32.07
2019-02-21T03:07:15.842Z,31.80
2019-02-21T03:09:41.791Z,32.53
2019-02-21T03:12:07.608Z,31.73
2019-02-21T03:14:33.444Z,33.77
2019-02-21T03:16:59.278Z,32.57
2019-02-21T03:19:25.113Z,33.30
2019-02-21T03:21:50.965Z,30.70
2019-02-21T03:24:16.811Z,30.73
2019-02-21T03:26:42.640Z,30.27
2019-02-21T03:29:08.464Z,29.60
2019-02-21T03:31:52.652Z,30.60
2019-02-21T03:34:02.150Z,32.33
2019-02-21T03:36:28.025Z,30.90
2019-02-21T03:38:53.851Z,30.97
2019-02-21T03:41:19.695Z,34.03
2019-02-21T03:43:45.509Z,28.40
2019-02-21T03:46:11.453Z,32.50
2019-02-21T03:48:37.297Z,32.50
2019-02-21T03:51:03.112Z,34.20
2019-02-21T03:53:29.431Z,35.00
2019-02-21T03:58:31.057Z,31.77
2019-02-21T04:00:57.022Z,32.67
2019-02-21T04:03:22.964Z,31.17
2019-02-21T04:05:48.809Z,33.87
2019-02-21T04:08:14.696Z,36.10
2019-02-21T04:10:40.515Z,33.53
2019-02-21T04:13:06.352Z,34.17
2019-02-21T04:15:32.829Z,31.83
2019-02-21T04:17:58.691Z,34.47
2019-02-21T04:20:24.546Z,29.80
2019-02-21T04:22:50.395Z,30.17
2019-02-21T04:25:16.208Z,33.20
2019-02-21T04:27:42.126Z,31.53
2019-02-21T04:30:08.349Z,32.17
2019-02-21T04:32:34.182Z,28.57
2019-02-21T04:35:00.323Z,33.57
2019-02-21T04:37:26.332Z,33.87
2019-02-21T04:39:52.171Z,32.10
2019-02-21T04:42:18.209Z,35.37
2019-02-21T04:44:44.049Z,34.43
2019-02-21T04:47:09.866Z,31.50
2019-02-21T04:49:35.714Z,34.57
2019-02-21T04:52:01.518Z,34.20
2019-02-21T04:54:27.371Z,33.33
2019-02-21T04:56:53.194Z,32.57
2019-02-21T04:59:19.045Z,32.93
2019-02-21T05:01:44.863Z,33.90
2019-02-21T05:04:10.704Z,37.90
2019-02-21T05:06:36.539Z,33.90
2019-02-21T05:09:04.319Z,37.97
2019-02-21T05:11:30.134Z,33.93
2019-02-21T05:13:56.025Z,35.73
2019-02-21T05:16:21.876Z,33.97
2019-02-21T05:18:47.709Z,36.83
2019-02-21T05:21:13.578Z,39.20
2019-02-21T05:23:39.446Z,38.90
2019-02-21T05:26:06.229Z,38.37
2019-02-21T05:28:32.057Z,37.27
2019-02-21T05:30:59.786Z,39.03
2019-02-21T05:33:39.721Z,40.00
2019-02-21T05:36:07.506Z,40.20
2019-02-21T05:38:35.338Z,37.43
2019-02-21T05:41:06.092Z,38.40
2019-02-21T05:43:37.343Z,41.87
2019-02-21T05:46:08.245Z,41.40
2019-02-21T05:48:35.910Z,36.10
2019-02-21T05:51:06.198Z,44.33
2019-02-21T05:53:33.929Z,40.57
2019-02-21T05:56:16.710Z,42.37
2019-02-21T05:58:50.567Z,37.53
2019-02-21T06:01:21.085Z,40.23
2019-02-21T06:03:57.899Z,42.33
2019-02-21T06:06:25.656Z,43.70
2019-02-21T06:08:59.314Z,42.33
2019-02-21T06:11:34.931Z,39.43
2019-02-21T06:14:05.234Z,41.47
2019-02-21T06:16:35.826Z,44.20
2019-02-21T06:19:06.345Z,42.53
2019-02-21T06:21:42.701Z,40.57
2019-02-21T06:24:13.447Z,40.83
2019-02-21T06:26:57.875Z,42.20
2019-02-21T06:29:25.757Z,43.50
2019-02-21T06:31:51.909Z,43.53
2019-02-21T06:34:17.735Z,37.97
2019-02-21T06:36:43.561Z,42.70
2019-02-21T06:39:09.403Z,45.13
2019-02-21T06:41:35.336Z,46.40
2019-02-21T06:44:01.212Z,46.40
2019-02-21T06:46:27.046Z,42.87
2019-02-21T06:48:52.885Z,44.93
2019-02-21T06:51:18.700Z,41.90
2019-02-21T06:53:44.545Z,43.60
2019-02-21T06:56:10.406Z,43.93
2019-02-21T06:58:36.254Z,48.03
2019-02-21T07:01:02.040Z,42.97
2019-02-21T07:03:29.081Z,48.57
2019-02-21T07:05:55.663Z,43.73
2019-02-21T07:08:21.524Z,44.43
2019-02-21T07:10:47.378Z,43.90
2019-02-21T07:13:13.264Z,42.87
2019-02-21T07:15:39.115Z,42.47
2019-02-21T07:18:05.068Z,43.10
2019-02-21T07:20:31.056Z,43.30
2019-02-21T07:22:56.893Z,41.07
2019-02-21T07:25:39.654Z,44.00
2019-02-21T07:28:11.727Z,45.60
2019-02-21T07:30:33.592Z,43.83
2019-02-21T07:32:59.520Z,41.10
2019-02-21T07:35:25.473Z,38.80
2019-02-21T07:37:53.356Z,41.50
2019-02-21T07:40:20.357Z,45.77
2019-02-21T07:42:48.120Z,38.63
2019-02-21T07:45:14.386Z,41.00
2019-02-21T07:47:40.631Z,41.87
2019-02-21T07:50:07.416Z,41.57
2019-02-21T07:52:33.263Z,42.33
2019-02-21T07:55:02.056Z,41.47
2019-02-21T07:57:26.871Z,40.73
2019-02-21T07:59:52.774Z,40.13
2019-02-21T08:02:20.917Z,38.13
2019-02-21T08:04:46.514Z,40.20
2019-02-21T08:07:12.336Z,37.63
2019-02-21T08:09:38.160Z,44.03
2019-02-21T08:12:04.104Z,40.77
2019-02-21T08:14:29.940Z,41.67
2019-02-21T08:16:56.230Z,44.87
2019-02-21T08:19:22.231Z,41.83
2019-02-21T08:21:48.326Z,41.57
2019-02-21T08:24:14.417Z,41.00
2019-02-21T08:26:40.258Z,42.13
2019-02-21T08:29:06.361Z,43.37
2019-02-21T08:31:32.659Z,39.63
2019-02-21T08:34:04.406Z,43.27
2019-02-21T08:36:30.780Z,42.73
2019-02-21T08:38:56.603Z,38.43
2019-02-21T08:41:22.459Z,42.90
2019-02-21T08:43:48.279Z,38.70
2019-02-21T08:46:14.221Z,40.17
2019-02-21T08:48:40.590Z,38.43
2019-02-21T08:51:06.718Z,43.87
2019-02-21T08:53:32.563Z,39.63
2019-02-21T08:55:58.399Z,40.87
2019-02-21T08:58:24.249Z,38.77
2019-02-21T09:00:50.098Z,39.43
2019-02-21T09:03:18.016Z,42.70
2019-02-21T09:05:43.701Z,38.40
2019-02-21T09:08:09.556Z,39.17
2019-02-21T09:10:35.596Z,39.37
2019-02-21T09:13:01.447Z,41.77
2019-02-21T09:15:27.330Z,40.40
2019-02-21T09:17:54.228Z,42.97
2019-02-21T09:20:20.436Z,41.73
2019-02-21T09:22:46.289Z,41.17
2019-02-21T09:25:13.231Z,41.90
2019-02-21T09:27:39.154Z,40.30
2019-02-21T09:30:14.837Z,41.50
2019-02-21T09:32:42.020Z,40.63
2019-02-21T09:35:08.451Z,49.27
2019-02-21T09:37:34.370Z,44.57
2019-02-21T09:40:00.330Z,42.87
2019-02-21T09:42:26.144Z,42.13
2019-02-21T09:44:51.998Z,43.83
2019-02-21T09:47:17.817Z,42.67
2019-02-21T09:49:43.773Z,40.77
2019-02-21T09:52:09.694Z,42.63
2019-02-21T09:54:35.557Z,37.83
2019-02-21T09:57:12.795Z,41.87
2019-02-21T09:59:31.037Z,50.67
2019-02-21T10:01:57.694Z,42.60
2019-02-21T10:04:31.922Z,47.10
2019-02-21T10:06:51.457Z,42.47
2019-02-21T10:09:17.290Z,42.80
2019-02-21T10:11:43.105Z,42.27
2019-02-21T10:14:08.936Z,40.47
2019-02-21T10:16:34.776Z,44.70
2019-02-21T10:19:00.595Z,40.27
2019-02-21T10:21:26.495Z,43.90
2019-02-21T10:23:52.310Z,46.13
2019-02-21T10:26:18.168Z,40.50
2019-02-21T10:28:45.241Z,45.37
2019-02-21T10:31:11.524Z,44.17
2019-02-21T10:33:46.577Z,41.18
2019-02-21T10:36:05.229Z,40.67
2019-02-21T10:38:31.050Z,44.20
2019-02-21T10:40:56.945Z,46.40
2019-02-21T10:43:22.779Z,43.70
2019-02-21T10:45:48.584Z,39.80
2019-02-21T10:48:14.477Z,43.93
2019-02-21T10:50:40.352Z,46.03
2019-02-21T10:53:06.195Z,43.93
2019-02-21T10:55:32.020Z,47.83
2019-02-21T10:57:58.246Z,50.80
2019-02-21T11:00:28.794Z,50.83
2019-02-21T11:02:54.753Z,44.50
2019-02-21T11:05:20.681Z,40.28
2019-02-21T11:07:46.627Z,37.53
2019-02-21T11:10:18.928Z,36.13
2019-02-21T11:12:43.852Z,36.33
2019-02-21T11:15:12.192Z,43.80
2019-02-21T11:17:38.039Z,38.80
2019-02-21T11:20:07.689Z,37.78
2019-02-21T11:22:33.537Z,39.75
2019-02-21T11:24:59.372Z,37.58
2019-02-21T11:27:25.215Z,43.05
2019-02-21T11:29:51.053Z,40.10
2019-02-21T11:32:16.900Z,33.98
2019-02-21T11:34:42.733Z,43.30
2019-02-21T11:37:08.648Z,37.63
2019-02-21T11:39:34.498Z,40.20
2019-02-21T11:42:00.648Z,40.52
2019-02-21T11:44:26.582Z,37.48
2019-02-21T11:46:52.401Z,42.70
2019-02-21T11:49:18.266Z,38.50
2019-02-21T11:51:44.089Z,41.80
2019-02-21T11:54:09.946Z,38.15
2019-02-21T11:56:35.754Z,42.40
2019-02-21T11:59:01.606Z,39.23
2019-02-21T12:01:27.467Z,36.28
2019-02-21T12:03:53.675Z,34.45
2019-02-21T12:06:22.653Z,36.73
2019-02-21T12:08:48.615Z,45.00
2019-02-21T12:11:14.455Z,37.98
2019-02-21T12:13:40.281Z,31.70
2019-02-21T12:16:06.215Z,32.53
2019-02-21T12:18:32.098Z,33.95
2019-02-21T12:20:58.068Z,30.43
2019-02-21T12:23:23.891Z,35.98
2019-02-21T12:25:49.848Z,31.60
2019-02-21T12:28:15.822Z,37.67
2019-02-21T12:30:41.688Z,34.73
2019-02-21T12:33:08.532Z,34.27
2019-02-21T12:35:34.370Z,33.20
2019-02-21T12:38:00.210Z,33.28
2019-02-21T12:40:26.085Z,30.02
2019-02-21T12:42:52.022Z,33.70
2019-02-21T12:45:20.175Z,30.90
2019-02-21T12:47:52.765Z,31.00
2019-02-21T12:50:14.428Z,33.78
2019-02-21T12:52:40.380Z,34.40
2019-02-21T12:55:08.235Z,28.05
2019-02-21T12:57:34.092Z,27.40
2019-02-21T12:59:59.942Z,31.15
2019-02-21T13:02:25.817Z,30.45
2019-02-21T13:04:51.669Z,30.00
2019-02-21T13:07:17.535Z,26.37
2019-02-21T13:09:43.383Z,26.65
2019-02-21T13:12:09.333Z,22.73
2019-02-21T13:14:35.280Z,32.90
2019-02-21T13:17:01.131Z,29.60
2019-02-21T13:19:26.971Z,27.32
2019-02-21T13:21:52.939Z,29.98
2019-02-21T13:24:18.762Z,26.10
2019-02-21T13:26:44.651Z,28.27
2019-02-21T13:29:10.485Z,32.67
2019-02-21T13:31:36.334Z,33.10
2019-02-21T13:34:02.404Z,30.43
2019-02-21T13:36:28.268Z,31.23
2019-02-21T13:38:54.368Z,36.90
2019-02-21T13:41:20.203Z,31.40
2019-02-21T13:43:46.070Z,36.77
2019-02-21T13:46:11.902Z,36.73
2019-02-21T13:48:37.773Z,33.48
2019-02-21T13:51:03.605Z,39.03
2019-02-21T13:53:29.498Z,33.73
2019-02-21T13:55:55.445Z,37.60
2019-02-21T13:58:21.317Z,32.23
2019-02-21T14:00:47.180Z,37.45
2019-02-21T14:03:13.052Z,34.65
2019-02-21T14:05:38.869Z,35.78
2019-02-21T14:08:05.168Z,37.65
2019-02-21T14:10:31.117Z,41.08
2019-02-21T14:12:56.933Z,35.35
2019-02-21T14:15:25.699Z,36.20
2019-02-21T14:17:51.504Z,33.63
2019-02-21T14:20:17.406Z,38.08
2019-02-21T14:22:43.245Z,33.40
2019-02-21T14:25:09.710Z,39.83
2019-02-21T14:27:35.702Z,38.23
2019-02-21T14:30:03.467Z,40.13
2019-02-21T14:32:29.335Z,38.87
2019-02-21T14:34:55.208Z,41.40
2019-02-21T14:37:21.061Z,35.05
2019-02-21T14:39:46.878Z,38.27
2019-02-21T14:42:12.870Z,37.23
2019-02-21T14:44:38.725Z,36.65
2019-02-21T14:47:04.541Z,37.42
2019-02-21T14:49:30.492Z,38.30
2019-02-21T14:51:56.332Z,41.83
2019-02-21T14:54:22.176Z,41.53
2019-02-21T14:56:48.080Z,38.70
2019-02-21T14:59:13.890Z,42.00
2019-02-21T15:01:39.763Z,38.07
2019-02-21T15:04:05.619Z,37.45
2019-02-21T15:06:31.628Z,39.95
2019-02-21T15:08:57.485Z,40.03
2019-02-21T15:11:23.310Z,37.15
2019-02-21T15:13:49.143Z,37.88
2019-02-21T15:16:15.081Z,34.65
2019-02-21T15:18:40.930Z,37.37
2019-02-21T15:21:06.830Z,39.92
2019-02-21T15:23:32.650Z,36.40
2019-02-21T15:25:58.538Z,34.57
2019-02-21T15:28:24.359Z,38.83
2019-02-21T15:30:50.244Z,36.30
2019-02-21T15:33:16.097Z,40.67
2019-02-21T15:35:41.920Z,35.43
2019-02-21T15:38:17.172Z,47.08
2019-02-21T15:40:35.497Z,41.33
2019-02-21T15:43:01.461Z,52.00
2019-02-21T15:45:28.291Z,39.03
2019-02-21T15:47:54.331Z,42.35
2019-02-21T15:50:20.484Z,40.20
2019-02-21T15:52:46.866Z,39.43
2019-02-21T15:55:15.582Z,39.13
2019-02-21T15:57:41.571Z,40.50
2019-02-21T16:00:13.597Z,43.07
2019-02-21T16:02:39.480Z,42.73
2019-02-21T16:05:06.027Z,43.00
2019-02-21T16:07:31.852Z,43.55
2019-02-21T16:09:57.710Z,42.15
2019-02-21T16:12:24.166Z,37.70
2019-02-21T16:14:50.383Z,41.83
2019-02-21T16:17:16.396Z,45.90
2019-02-21T16:19:42.278Z,47.77
2019-02-21T16:22:08.162Z,41.87
2019-02-21T16:24:34.063Z,40.73
2019-02-21T16:26:59.921Z,42.63
2019-02-21T16:29:25.999Z,46.80
2019-02-21T16:31:52.025Z,46.33
2019-02-21T16:34:18.400Z,44.93
2019-02-21T16:36:44.232Z,40.63
2019-02-21T16:39:10.299Z,44.40
2019-02-21T16:41:36.787Z,46.47
2019-02-21T16:44:02.968Z,41.87
2019-02-21T16:46:28.805Z,38.37
2019-02-21T16:48:54.764Z,42.87
2019-02-21T16:51:22.226Z,45.03
2019-02-21T16:53:48.314Z,41.50
2019-02-21T16:56:14.193Z,45.50
2019-02-21T16:58:42.695Z,52.00
2019-02-21T17:01:08.017Z,47.20
2019-02-21T17:03:33.885Z,42.00
2019-02-21T17:05:59.752Z,42.47
2019-02-21T17:08:25.701Z,44.33
2019-02-21T17:10:51.573Z,44.73
2019-02-21T17:13:17.426Z,45.17
2019-02-21T17:15:43.382Z,42.37
2019-02-21T17:18:09.324Z,43.83
2019-02-21T17:20:35.235Z,51.53
2019-02-21T17:23:01.062Z,51.80
2019-02-21T17:25:26.948Z,48.80
2019-02-21T17:27:52.811Z,50.47
2019-02-21T17:30:19.449Z,47.80
2019-02-21T17:32:45.840Z,48.20
2019-02-21T17:35:12.795Z,50.33
2019-02-21T17:37:38.642Z,51.47
2019-02-21T17:40:08.348Z,50.77
2019-02-21T17:42:34.179Z,53.30
2019-02-21T17:44:59.999Z,52.07
2019-02-21T17:47:25.891Z,51.90
2019-02-21T17:49:51.735Z,47.67
2019-02-21T17:52:17.698Z,51.30
2019-02-21T17:54:43.546Z,48.50
2019-02-21T17:57:09.508Z,48.17
2019-02-21T17:59:35.355Z,48.17
2019-02-21T18:02:01.242Z,53.27
2019-02-21T18:04:27.197Z,47.40
2019-02-21T18:06:53.146Z,44.47
2019-02-21T18:09:19.127Z,50.63
2019-02-21T18:11:45.048Z,48.73
2019-02-21T18:14:10.872Z,52.93
2019-02-21T18:16:36.812Z,53.73
2019-02-21T18:19:02.693Z,47.83
2019-02-21T18:21:28.895Z,49.53
2019-02-21T18:23:54.777Z,54.37
2019-02-21T18:26:20.731Z,47.63
2019-02-21T18:28:46.588Z,52.37
2019-02-21T18:31:12.436Z,55.07
2019-02-21T18:33:38.516Z,55.00
2019-02-21T18:36:04.441Z,53.37
2019-02-21T18:38:30.408Z,58.90
2019-02-21T18:40:56.291Z,59.40
2019-02-21T18:43:22.189Z,58.07
2019-02-21T18:45:48.440Z,56.30
2019-02-21T18:48:14.404Z,56.93
2019-02-21T18:50:40.363Z,61.17
2019-02-21T18:53:06.205Z,62.50
2019-02-21T18:55:32.080Z,61.47
2019-02-21T18:57:57.925Z,67.63
2019-02-21T19:00:25.521Z,67.60
2019-02-21T19:02:51.547Z,66.27
2019-02-21T19:05:18.723Z,70.13
2019-02-21T19:07:44.564Z,67.50
2019-02-21T19:10:14.282Z,70.73
2019-02-21T19:12:40.158Z,65.00
2019-02-21T19:15:08.420Z,65.27
2019-02-21T19:17:34.335Z,71.63
2019-02-21T19:20:00.790Z,70.37
2019-02-21T19:22:26.677Z,74.40
2019-02-21T19:24:52.867Z,72.53
2019-02-21T19:27:18.740Z,75.43
2019-02-21T19:29:44.647Z,73.63
2019-02-21T19:32:10.495Z,69.03
2019-02-21T19:34:36.441Z,70.60
2019-02-21T19:37:02.407Z,67.73
2019-02-21T19:39:28.269Z,70.83
2019-02-21T19:41:54.394Z,71.03
2019-02-21T19:44:20.246Z,72.70
2019-02-21T19:46:46.226Z,71.40
2019-02-21T19:49:12.109Z,72.87
2019-02-21T19:51:38.039Z,72.90
2019-02-21T19:54:03.977Z,72.27
2019-02-21T19:56:29.859Z,77.17
2019-02-21T19:58:55.816Z,78.40
2019-02-21T20:01:21.951Z,77.17
2019-02-21T20:03:47.831Z,75.47
2019-02-21T20:06:13.757Z,81.53
2019-02-21T20:08:39.773Z,79.40
2019-02-21T20:11:05.749Z,79.63
2019-02-21T20:13:31.717Z,78.77
2019-02-21T20:15:57.672Z,81.87
2019-02-21T20:18:23.572Z,76.70
2019-02-21T20:20:49.556Z,76.87
2019-02-21T20:23:15.846Z,82.53
2019-02-21T20:25:41.797Z,80.90
2019-02-21T20:28:08.073Z,80.30
2019-02-21T20:30:33.903Z,75.23
2019-02-21T20:32:59.803Z,88.80
2019-02-21T20:35:25.808Z,85.67
2019-02-21T20:37:51.657Z,89.13
2019-02-21T20:40:17.608Z,86.37
2019-02-21T20:42:43.663Z,86.20
2019-02-21T20:45:10.949Z,88.20
2019-02-21T20:47:36.787Z,87.67
2019-02-21T20:50:05.424Z,94.43
2019-02-21T20:52:31.401Z,85.30
2019-02-21T20:54:57.455Z,86.67
2019-02-21T20:57:23.377Z,79.30
2019-02-21T20:59:49.387Z,82.40
2019-02-21T21:02:15.360Z,83.50
2019-02-21T21:04:41.508Z,84.23
2019-02-21T21:07:07.550Z,88.67
2019-02-21T21:09:33.425Z,84.33
2019-02-21T21:11:59.306Z,89.43
2019-02-21T21:14:25.273Z,77.63
2019-02-21T21:16:51.200Z,79.60
2019-02-21T21:19:17.185Z,84.70
2019-02-21T21:21:43.141Z,74.87
2019-02-21T21:24:08.995Z,66.57
2019-02-21T21:26:35.014Z,65.47
2019-02-21T21:29:00.917Z,60.60
2019-02-21T21:31:26.865Z,58.30
2019-02-21T21:33:52.830Z,57.03
2019-02-21T21:36:18.822Z,62.43
2019-02-21T21:38:53.728Z,57.60
2019-02-21T21:41:12.781Z,64.27
2019-02-21T21:43:38.705Z,66.17
2019-02-21T21:46:04.693Z,63.13
2019-02-21T21:48:30.636Z,60.40
2019-02-21T21:50:56.503Z,64.53
2019-02-21T21:53:22.459Z,62.27
2019-02-21T21:55:48.340Z,61.30
2019-02-21T21:58:14.279Z,65.43
2019-02-21T22:00:40.142Z,62.30
2019-02-21T22:03:06.117Z,68.73
2019-02-21T22:05:31.973Z,59.70
2019-02-21T22:07:57.829Z,65.03
2019-02-21T22:10:23.770Z,69.97
2019-02-21T22:12:49.633Z,64.73
2019-02-21T22:15:20.147Z,81.43
2019-02-21T22:17:46.035Z,81.20
2019-02-21T22:20:12.585Z,77.60
2019-02-21T22:22:38.458Z,74.03
2019-02-21T22:25:07.551Z,81.23
2019-02-21T22:27:33.389Z,82.50
2019-02-21T22:29:59.226Z,86.43
2019-02-21T22:32:25.172Z,86.70
2019-02-21T22:34:51.117Z,79.90
2019-02-21T22:37:17.046Z,88.53
2019-02-21T22:39:42.928Z,83.67
2019-02-21T22:42:08.774Z,84.87
2019-02-21T22:44:34.653Z,87.83
2019-02-21T22:47:00.494Z,91.43
2019-02-21T22:49:26.443Z,93.40
2019-02-21T22:51:52.255Z,93.80
2019-02-21T22:54:18.221Z,95.00
2019-02-21T22:56:44.143Z,90.00
2019-02-21T22:59:09.992Z,92.43
2019-02-21T23:01:35.913Z,104.60
2019-02-21T23:04:08.343Z,98.50
2019-02-21T23:06:47.103Z,98.47
2019-02-21T23:09:26.941Z,102.70
2019-02-21T23:11:46.235Z,101.77
2019-02-21T23:14:12.183Z,105.60
2019-02-21T23:16:38.129Z,108.43
2019-02-21T23:19:04.006Z,105.47
2019-02-21T23:21:29.914Z,99.67
2019-02-21T23:23:55.796Z,97.87
2019-02-21T23:26:21.608Z,108.43
2019-02-21T23:28:47.436Z,100.70
2019-02-21T23:31:13.382Z,103.70
2019-02-21T23:33:53.336Z,108.20
2019-02-21T23:36:19.184Z,111.40
2019-02-21T23:38:45.083Z,106.10
2019-02-21T23:41:11.065Z,105.80
2019-02-21T23:43:37.000Z,114.97
2019-02-21T23:46:02.954Z,111.87
2019-02-21T23:48:28.798Z,127.90
2019-02-21T23:50:54.645Z,117.00
2019-02-21T23:53:20.465Z,109.67
2019-02-21T23:55:46.326Z,120.53
2019-02-21T23:58:12.155Z,126.57
